createdAt,value
2023-04-07T00:03:33.953Z,82.52
2023-04-07T00:08:36.745Z,82.37
2023-04-07T00:13:39.306Z,82.37
2023-04-07T00:18:47.078Z,82.38
2023-04-07T00:24:01.769Z,82.41
2023-04-07T00:29:06.607Z,82.92
2023-04-07T00:34:19.512Z,82.90
2023-04-07T00:39:22.135Z,82.82
2023-04-07T00:44:25.787Z,82.78
2023-04-07T00:49:32.083Z,83.16
2023-04-07T00:54:35.286Z,83.14
2023-04-07T00:59:38.984Z,83.20
2023-04-07T01:04:51.913Z,83.45
2023-04-07T01:10:05.740Z,83.39
2023-04-07T01:15:22.716Z,83.59
2023-04-07T01:20:33.068Z,83.50
2023-04-07T01:26:04.451Z,83.55
2023-04-07T01:31:10.800Z,83.50
2023-04-07T01:36:37.052Z,83.53
2023-04-07T01:41:43.256Z,83.45
2023-04-07T01:46:46.651Z,84.05
2023-04-07T01:51:53.027Z,83.60
2023-04-07T01:57:11.794Z,83.84
2023-04-07T02:02:43.103Z,83.90
2023-04-07T02:08:01.394Z,84.17
2023-04-07T02:13:10.650Z,84.00
2023-04-07T02:18:36.512Z,84.29
2023-04-07T02:23:49.968Z,84.40
2023-04-07T02:28:57.959Z,84.47
2023-04-07T02:34:00.751Z,84.23
2023-04-07T02:39:04.826Z,83.90
2023-04-07T02:44:10.149Z,84.44
2023-04-07T02:49:13.150Z,84.40
2023-04-07T02:54:15.839Z,84.55
2023-04-07T02:59:22.687Z,84.54
2023-04-07T03:04:33.547Z,84.49
2023-04-07T03:09:36.827Z,84.25
2023-04-07T03:14:39.457Z,84.44
2023-04-07T03:19:57.767Z,84.52
2023-04-07T03:25:01.140Z,84.55
2023-04-07T03:30:15.773Z,84.60
2023-04-07T03:35:22.232Z,84.55
2023-04-07T03:40:27.036Z,84.53
2023-04-07T03:45:34.095Z,84.50
2023-04-07T03:50:40.390Z,84.68
2023-04-07T03:55:48.731Z,84.81
2023-04-07T04:01:02.723Z,85.03
2023-04-07T04:06:07.526Z,84.88
2023-04-07T04:11:09.996Z,84.75
2023-04-07T04:16:54.374Z,84.80
2023-04-07T04:22:04.264Z,84.89
2023-04-07T04:27:12.022Z,84.95
2023-04-07T04:32:15.457Z,84.92
2023-04-07T04:37:18.951Z,84.94
2023-04-07T04:42:23.040Z,85.03
2023-04-07T04:47:26.478Z,85.24
2023-04-07T04:52:32.070Z,85.13
2023-04-07T04:57:38.459Z,85.22
2023-04-07T05:02:47.047Z,84.80
2023-04-07T05:07:51.101Z,84.98
2023-04-07T05:12:54.327Z,85.07
2023-04-07T05:18:02.939Z,85.04
2023-04-07T05:23:26.578Z,85.10
2023-04-07T05:28:37.555Z,85.22
2023-04-07T05:33:44.520Z,85.40
2023-04-07T05:38:48.449Z,85.16
2023-04-07T05:43:53.958Z,85.04
2023-04-07T05:49:18.791Z,85.52
2023-04-07T05:54:41.051Z,85.34
2023-04-07T05:59:50.730Z,85.29
2023-04-07T06:05:07.908Z,85.10
2023-04-07T06:10:12.496Z,85.38
2023-04-07T06:15:18.821Z,85.29
2023-04-07T06:20:28.910Z,85.43
2023-04-07T06:25:31.560Z,85.59
2023-04-07T06:30:42.002Z,85.65
2023-04-07T06:36:05.575Z,85.68
2023-04-07T06:41:28.625Z,85.47
2023-04-07T06:46:31.735Z,85.33
2023-04-07T06:52:02.817Z,85.58
2023-04-07T06:57:44.263Z,85.41
2023-04-07T07:03:12.886Z,85.38
2023-04-07T07:08:32.937Z,85.14
2023-04-07T07:13:54.717Z,85.30
2023-04-07T07:19:14.141Z,85.33
2023-04-07T07:24:17.448Z,85.33
2023-04-07T07:30:09.754Z,85.22
2023-04-07T07:35:16.343Z,85.23
2023-04-07T07:40:40.986Z,84.87
2023-04-07T07:46:15.732Z,84.98
2023-04-07T07:51:55.455Z,84.83
2023-04-07T07:57:06.159Z,84.83
2023-04-07T08:02:12.912Z,84.76
2023-04-07T08:07:21.537Z,84.77
2023-04-07T08:12:50.255Z,84.66
2023-04-07T08:17:54.713Z,84.38
2023-04-07T08:23:10.274Z,84.41
2023-04-07T08:28:13.927Z,84.65
2023-04-07T08:33:26.681Z,84.54
2023-04-07T08:38:29.159Z,84.44
2023-04-07T08:43:39.492Z,84.26
2023-04-07T08:48:53.017Z,84.54
2023-04-07T08:54:26.056Z,84.69
2023-04-07T08:59:29.925Z,84.44
2023-04-07T09:04:46.007Z,84.34
2023-04-07T09:11:06.884Z,84.52
2023-04-07T09:16:09.712Z,84.25
2023-04-07T09:21:16.772Z,84.28
2023-04-07T09:26:41.631Z,84.23
2023-04-07T09:31:50.565Z,84.18
2023-04-07T09:37:05.013Z,84.06
2023-04-07T09:42:11.687Z,84.10
2023-04-07T09:47:14.504Z,84.10
2023-04-07T09:53:19.779Z,84.04
2023-04-07T09:58:41.121Z,84.14
2023-04-07T10:03:48.375Z,83.67
2023-04-07T10:09:14.650Z,83.62
2023-04-07T10:14:19.552Z,83.86
2023-04-07T10:19:27.059Z,83.79
2023-04-07T10:24:59.023Z,84.00
2023-04-07T10:30:04.273Z,84.04
2023-04-07T10:35:24.025Z,83.91
2023-04-07T10:41:36.328Z,83.71
2023-04-07T10:47:31.725Z,83.87
2023-04-07T10:53:18.815Z,83.91
2023-04-07T10:58:29.074Z,83.98
2023-04-07T11:04:10.084Z,84.02
2023-04-07T11:09:45.694Z,84.26
2023-04-07T11:15:11.488Z,84.21
2023-04-07T11:20:57.277Z,84.62
2023-04-07T11:26:12.782Z,84.76
2023-04-07T11:31:31.789Z,84.70
2023-04-07T11:36:39.605Z,84.62
2023-04-07T11:41:50.606Z,84.68
2023-04-07T11:47:03.873Z,84.82
2023-04-07T11:52:12.952Z,85.05
2023-04-07T11:57:24.341Z,85.16
2023-04-07T12:02:34.182Z,85.32
2023-04-07T12:07:42.090Z,85.36
2023-04-07T12:12:46.351Z,85.60
2023-04-07T12:17:53.179Z,85.72
2023-04-07T12:22:56.048Z,85.76
2023-04-07T12:28:01.601Z,85.75
2023-04-07T12:33:04.111Z,85.97
2023-04-07T12:38:09.157Z,85.99
2023-04-07T12:43:11.644Z,85.99
2023-04-07T12:48:18.712Z,86.34
2023-04-07T12:53:27.562Z,86.17
2023-04-07T12:58:30.699Z,85.93
2023-04-07T13:03:35.878Z,86.05
2023-04-07T13:08:39.443Z,86.18
2023-04-07T13:13:42.278Z,86.16
2023-04-07T13:18:52.722Z,85.96
2023-04-07T13:24:00.471Z,86.12
2023-04-07T13:29:18.647Z,86.42
2023-04-07T13:34:48.336Z,86.49
2023-04-07T13:40:04.247Z,86.35
2023-04-07T13:45:23.453Z,86.48
2023-04-07T13:50:47.078Z,86.46
2023-04-07T13:55:57.379Z,86.74
2023-04-07T14:01:07.436Z,86.75
2023-04-07T14:06:11.209Z,86.59
2023-04-07T14:11:18.123Z,86.72
2023-04-07T14:16:23.785Z,86.98
2023-04-07T14:21:31.495Z,86.93
2023-04-07T14:26:33.568Z,86.96
2023-04-07T14:31:36.121Z,87.16
2023-04-07T14:36:38.881Z,87.21
2023-04-07T14:41:41.521Z,87.38
2023-04-07T14:46:44.457Z,87.49
2023-04-07T14:51:51.435Z,87.21
2023-04-07T14:56:53.812Z,87.41
2023-04-07T15:01:56.168Z,87.40
2023-04-07T15:06:58.576Z,87.38
2023-04-07T15:12:02.643Z,87.43
2023-04-07T15:17:05.087Z,87.71
2023-04-07T15:22:07.869Z,87.73
2023-04-07T15:27:11.060Z,87.74
2023-04-07T15:32:13.852Z,87.84
2023-04-07T15:37:17.394Z,87.69
2023-04-07T15:42:19.929Z,87.65
2023-04-07T15:47:22.829Z,87.78
2023-04-07T15:52:25.849Z,87.90
2023-04-07T15:57:28.186Z,87.82
2023-04-07T16:02:30.870Z,87.89
2023-04-07T16:07:33.990Z,87.76
2023-04-07T16:12:45.806Z,87.93
2023-04-07T16:17:49.077Z,88.09
2023-04-07T16:22:52.416Z,88.07
2023-04-07T16:27:55.625Z,88.00
2023-04-07T16:33:01.834Z,88.03
2023-04-07T16:38:12.356Z,87.98
2023-04-07T16:43:18.168Z,87.95
2023-04-07T16:48:31.152Z,88.07
2023-04-07T16:53:34.244Z,88.12
2023-04-07T16:58:48.932Z,87.96
2023-04-07T17:03:58.570Z,88.18
2023-04-07T17:09:04.374Z,87.99
2023-04-07T17:14:06.874Z,88.22
2023-04-07T17:19:09.884Z,88.09
2023-04-07T17:24:15.387Z,88.20
2023-04-07T17:29:29.125Z,88.15
2023-04-07T17:34:33.605Z,88.37
2023-04-07T17:39:36.156Z,88.50
2023-04-07T17:44:38.760Z,88.57
2023-04-07T17:49:50.590Z,88.56
2023-04-07T17:55:03.488Z,88.62
2023-04-07T18:00:09.235Z,88.49
2023-04-07T18:05:21.043Z,88.43
2023-04-07T18:10:23.974Z,88.32
2023-04-07T18:15:26.939Z,88.50
2023-04-07T18:20:29.675Z,88.50
2023-04-07T18:25:32.007Z,88.63
2023-04-07T18:30:35.129Z,88.66
2023-04-07T18:35:38.039Z,88.57
2023-04-07T18:40:40.392Z,88.53
2023-04-07T18:45:47.059Z,88.69
2023-04-07T18:50:52.216Z,88.74
2023-04-07T18:55:55.899Z,88.70
2023-04-07T19:01:03.805Z,88.52
2023-04-07T19:06:06.652Z,88.74
2023-04-07T19:11:10.234Z,88.76
2023-04-07T19:16:13.645Z,88.72
2023-04-07T19:21:18.983Z,88.72
2023-04-07T19:26:22.890Z,88.60
2023-04-07T19:31:28.194Z,88.75
2023-04-07T19:36:31.331Z,88.67
2023-04-07T19:41:34.704Z,88.76
2023-04-07T19:46:37.815Z,88.81
2023-04-07T19:51:41.703Z,88.82
2023-04-07T19:56:52.775Z,88.84
2023-04-07T20:01:55.621Z,88.82
2023-04-07T20:06:58.060Z,89.00
2023-04-07T20:12:01.791Z,89.06
2023-04-07T20:17:04.888Z,89.04
2023-04-07T20:22:08.264Z,89.20
2023-04-07T20:27:11.107Z,89.06
2023-04-07T20:32:13.641Z,89.01
2023-04-07T20:37:16.657Z,88.97
2023-04-07T20:42:19.266Z,89.06
2023-04-07T20:47:25.126Z,89.07
2023-04-07T20:52:39.416Z,89.12
2023-04-07T20:57:43.639Z,89.11
2023-04-07T21:02:48.294Z,89.29
2023-04-07T21:07:51.933Z,89.33
2023-04-07T21:13:15.968Z,89.24
2023-04-07T21:18:19.396Z,89.03
2023-04-07T21:23:22.415Z,89.03
2023-04-07T21:28:24.944Z,89.15
2023-04-07T21:33:27.821Z,89.23
2023-04-07T21:38:31.181Z,89.27
2023-04-07T21:43:34.866Z,89.34
2023-04-07T21:48:49.379Z,89.42
2023-04-07T21:53:54.296Z,89.33
2023-04-07T21:58:57.222Z,89.48
2023-04-07T22:04:00.016Z,89.65
2023-04-07T22:09:03.600Z,89.58
2023-04-07T22:14:07.000Z,89.57
2023-04-07T22:19:10.213Z,89.47
2023-04-07T22:24:12.853Z,89.38
2023-04-07T22:29:18.658Z,89.32
2023-04-07T22:34:21.723Z,89.44
2023-04-07T22:39:24.885Z,89.33
2023-04-07T22:44:27.645Z,89.28
2023-04-07T22:49:31.345Z,89.10
2023-04-07T22:54:33.970Z,89.09
2023-04-07T22:59:36.760Z,88.98
2023-04-07T23:04:42.647Z,88.98
2023-04-07T23:09:47.229Z,89.05
2023-04-07T23:14:54.592Z,89.16
2023-04-07T23:19:58.100Z,88.91
2023-04-07T23:25:03.098Z,88.91
2023-04-07T23:30:06.431Z,89.05
2023-04-07T23:35:14.508Z,88.89
2023-04-07T23:40:21.628Z,88.67
2023-04-07T23:45:30.820Z,88.71
2023-04-07T23:50:48.800Z,88.55
2023-04-07T23:55:52.104Z,88.31
